Time;durP1;ratioP1;P1;durP2;ratioP2;P2;SDS_P1;SDS_P2;PMS_P1;PMS_P2;Temp;Humidity;BMP_temperature;BMP_pressure;BME280_temperature;BME280_humidity;BME280_pressure;Samples;Min_cycle;Max_cycle;Signal;HPM_P1;HPM_P2
2023/08/28 00:00:47;;;;;;;0.10;0.10;;;14.80;99.90;;;;;;5043541;28;20648;-82
2023/08/28 00:03:12;;;;;;;0.10;0.10;;;14.80;99.90;;;;;;5045015;28;20320;-82
2023/08/28 00:05:38;;;;;;;0.10;0.10;;;14.80;99.90;;;;;;5046709;28;20276;-81
2023/08/28 00:08:04;;;;;;;0.00;0.00;;;14.60;99.90;;;;;;5046349;28;20206;-82
2023/08/28 00:10:31;;;;;;;0.10;0.10;;;14.40;99.90;;;;;;5062645;28;20272;-80
2023/08/28 00:12:56;;;;;;;0.10;0.10;;;14.10;99.90;;;;;;5045200;28;20239;-82
2023/08/28 00:15:22;;;;;;;0.00;0.00;;;14.00;99.90;;;;;;5045183;28;20250;-82
2023/08/28 00:17:49;;;;;;;0.10;0.10;;;13.80;99.90;;;;;;5045166;28;20211;-82
2023/08/28 00:20:15;;;;;;;0.00;0.00;;;13.90;99.90;;;;;;5045927;28;20190;-82
2023/08/28 00:22:41;;;;;;;0.00;0.00;;;14.10;99.90;;;;;;5045879;28;20185;-81
2023/08/28 00:25:07;;;;;;;0.10;0.10;;;14.20;99.90;;;;;;5045701;28;20204;-82
2023/08/28 00:27:33;;;;;;;0.10;0.10;;;14.40;99.90;;;;;;5046737;28;20197;-82
2023/08/28 00:29:59;;;;;;;0.10;0.10;;;14.50;99.90;;;;;;5044915;28;20199;-81
2023/08/28 00:32:26;;;;;;;0.10;0.10;;;14.60;99.90;;;;;;5045315;28;20187;-82
2023/08/28 00:34:51;;;;;;;0.10;0.10;;;14.60;99.90;;;;;;5046086;28;20245;-81
2023/08/28 00:37:17;;;;;;;0.00;0.00;;;14.60;99.90;;;;;;5044853;28;20227;-82
2023/08/28 00:39:42;;;;;;;0.10;0.10;;;14.40;99.90;;;;;;5044346;28;20185;-82
2023/08/28 00:42:08;;;;;;;0.10;0.10;;;14.40;99.90;;;;;;5046362;28;20268;-82
2023/08/28 00:44:33;;;;;;;0.10;0.10;;;14.50;99.90;;;;;;5044980;28;20267;-82
2023/08/28 00:46:59;;;;;;;0.10;0.10;;;14.50;99.90;;;;;;5045313;28;20248;-81
2023/08/28 00:49:25;;;;;;;0.10;0.10;;;14.40;99.90;;;;;;5044703;28;20604;-82
2023/08/28 00:51:50;;;;;;;0.10;0.10;;;14.50;99.90;;;;;;5043671;28;20206;-81
2023/08/28 00:54:16;;;;;;;0.00;0.00;;;14.60;99.90;;;;;;5044233;28;20723;-82
2023/08/28 00:56:42;;;;;;;0.10;0.10;;;14.60;99.90;;;;;;5045071;28;20182;-82
2023/08/28 00:59:08;;;;;;;0.10;0.10;;;14.70;99.90;;;;;;5060539;28;20238;-82
2023/08/28 01:01:34;;;;;;;0.10;0.10;;;14.70;99.90;;;;;;5052902;28;20604;-82
2023/08/28 01:03:59;;;;;;;0.00;0.00;;;14.60;99.90;;;;;;5042871;28;20203;-82
2023/08/28 01:06:36;;;;;;;0.10;0.10;;;14.60;99.90;;;;;;5044868;28;20203;-82
2023/08/28 01:09:19;;;;;;;0.00;0.00;;;14.40;99.90;;;;;;5052817;28;20287;-82
2023/08/28 01:11:54;;;;;;;0.10;0.10;;;14.00;99.90;;;;;;5044009;28;20208;-82
2023/08/28 01:14:26;;;;;;;0.10;0.10;;;13.70;99.90;;;;;;5042832;28;20764;-82
2023/08/28 01:16:56;;;;;;;0.03;0.03;;;13.60;99.90;;;;;;5035345;28;20255;-82
2023/08/28 01:19:43;;;;;;;0.03;0.03;;;13.40;99.90;;;;;;5058499;28;20233;-82
2023/08/28 01:22:17;;;;;;;0.00;0.00;;;13.20;99.90;;;;;;5043731;28;20300;-81
2023/08/28 01:24:49;;;;;;;0.00;0.00;;;13.20;99.90;;;;;;5043921;28;20209;-82
2023/08/28 01:27:15;;;;;;;0.10;0.10;;;13.30;99.90;;;;;;5044554;28;20173;-82
2023/08/28 01:29:40;;;;;;;0.10;0.10;;;13.40;99.90;;;;;;5042655;28;20247;-82
2023/08/28 01:32:06;;;;;;;0.10;0.10;;;13.40;99.90;;;;;;5043345;28;20884;-82
2023/08/28 01:34:31;;;;;;;0.00;0.00;;;13.60;99.90;;;;;;5064062;28;20252;-82
2023/08/28 01:37:09;;;;;;;0.10;0.10;;;13.70;99.90;;;;;;5047098;28;20661;-82
2023/08/28 01:39:41;;;;;;;0.10;0.10;;;13.80;99.90;;;;;;5047259;28;20268;-81
2023/08/28 01:42:09;;;;;;;0.00;0.00;;;13.80;99.90;;;;;;5063640;28;20193;-81
2023/08/28 01:44:35;;;;;;;0.00;0.00;;;13.90;99.90;;;;;;5046457;28;20221;-82
2023/08/28 01:47:01;;;;;;;0.10;0.10;;;13.90;99.90;;;;;;5047266;28;20191;-82
2023/08/28 01:49:29;;;;;;;0.10;0.10;;;14.00;99.90;;;;;;5048259;28;20597;-82
2023/08/28 01:51:55;;;;;;;0.10;0.10;;;14.00;99.90;;;;;;5062497;28;20189;-82
2023/08/28 01:54:21;;;;;;;0.10;0.10;;;13.90;99.90;;;;;;5047264;28;20212;-81
2023/08/28 01:56:47;;;;;;;0.03;0.03;;;13.60;99.90;;;;;;5049088;28;20258;-81
2023/08/28 01:59:13;;;;;;;0.10;0.10;;;13.30;99.90;;;;;;5047113;28;20188;-82
2023/08/28 02:01:38;;;;;;;0.10;0.10;;;13.10;99.90;;;;;;5045547;28;20212;-81
2023/08/28 02:04:04;;;;;;;0.10;0.10;;;12.90;99.90;;;;;;5045324;28;20268;-82
2023/08/28 02:06:30;;;;;;;0.10;0.10;;;13.00;99.90;;;;;;5046434;28;20198;-81
2023/08/28 02:08:55;;;;;;;0.10;0.10;;;13.10;99.90;;;;;;5047258;28;20236;-81
2023/08/28 02:11:21;;;;;;;0.10;0.10;;;13.30;99.90;;;;;;5048282;28;20601;-81
2023/08/28 02:13:47;;;;;;;0.10;0.10;;;13.40;99.90;;;;;;5045954;28;20206;-82
2023/08/28 02:16:12;;;;;;;0.10;0.10;;;13.40;99.90;;;;;;5060595;28;20528;-81
2023/08/28 02:18:39;;;;;;;0.10;0.10;;;13.50;99.90;;;;;;5046856;28;21114;-82
2023/08/28 02:21:04;;;;;;;0.03;0.03;;;13.60;99.90;;;;;;5061699;28;20938;-81
2023/08/28 02:23:30;;;;;;;0.10;0.10;;;13.60;99.90;;;;;;5046375;28;20211;-81
2023/08/28 02:25:55;;;;;;;0.10;0.10;;;13.70;99.90;;;;;;5047364;28;20190;-81
2023/08/28 02:28:21;;;;;;;0.10;0.10;;;13.70;99.90;;;;;;5046730;28;20223;-81
2023/08/28 02:30:47;;;;;;;0.10;0.10;;;13.80;99.90;;;;;;5045761;28;20251;-81
2023/08/28 02:33:13;;;;;;;0.10;0.10;;;13.80;99.90;;;;;;5047157;28;20212;-82
2023/08/28 02:35:39;;;;;;;0.10;0.10;;;13.90;99.90;;;;;;5047517;28;20321;-81
2023/08/28 02:38:08;;;;;;;0.10;0.10;;;13.90;99.90;;;;;;5063106;28;20257;-81
2023/08/28 02:40:37;;;;;;;0.10;0.10;;;13.90;99.90;;;;;;5047149;28;20201;-82
2023/08/28 02:43:05;;;;;;;0.10;0.10;;;14.00;99.90;;;;;;5044401;28;20205;-81
2023/08/28 02:45:35;;;;;;;0.10;0.10;;;14.00;99.90;;;;;;5035224;28;20192;-81
2023/08/28 02:48:03;;;;;;;0.10;0.10;;;14.00;99.90;;;;;;5046170;28;20195;-82
2023/08/28 02:50:29;;;;;;;0.10;0.10;;;14.10;99.90;;;;;;5044632;28;20237;-81
2023/08/28 02:52:54;;;;;;;0.10;0.10;;;14.10;99.90;;;;;;5044836;28;20240;-82
2023/08/28 02:55:20;;;;;;;0.10;0.10;;;14.10;99.90;;;;;;5047159;28;20284;-81
2023/08/28 02:57:45;;;;;;;0.10;0.10;;;14.10;99.90;;;;;;5045149;28;20201;-81
2023/08/28 03:00:11;;;;;;;0.10;0.10;;;14.00;99.90;;;;;;5061136;28;20185;-81
2023/08/28 03:02:37;;;;;;;0.10;0.10;;;13.60;99.90;;;;;;5044735;28;20191;-82
2023/08/28 03:05:02;;;;;;;0.10;0.10;;;13.50;99.90;;;;;;5047171;28;20194;-82
2023/08/28 03:07:28;;;;;;;0.10;0.10;;;13.40;99.90;;;;;;5043978;28;20639;-81
2023/08/28 03:09:54;;;;;;;0.10;0.10;;;13.30;99.90;;;;;;5044206;28;20326;-81
2023/08/28 03:12:20;;;;;;;0.07;0.07;;;13.30;99.90;;;;;;5044915;28;20186;-81
2023/08/28 03:14:45;;;;;;;0.10;0.10;;;13.30;99.90;;;;;;5045584;28;20231;-81
2023/08/28 03:17:11;;;;;;;0.10;0.10;;;13.10;99.90;;;;;;5045105;28;20248;-82
2023/08/28 03:19:36;;;;;;;0.10;0.10;;;13.10;99.90;;;;;;5047526;28;20230;-81
2023/08/28 03:22:02;;;;;;;0.10;0.10;;;13.00;99.90;;;;;;5046039;28;20603;-81
2023/08/28 03:24:27;;;;;;;0.00;0.00;;;12.90;99.90;;;;;;5060395;28;20205;-82
2023/08/28 03:26:53;;;;;;;0.10;0.10;;;12.80;99.90;;;;;;5060953;28;20231;-81
2023/08/28 03:29:18;;;;;;;0.10;0.10;;;12.70;99.90;;;;;;5053642;28;20194;-81
2023/08/28 03:31:44;;;;;;;0.10;0.10;;;12.60;99.90;;;;;;5046733;28;20191;-81
2023/08/28 03:34:10;;;;;;;0.10;0.10;;;12.60;99.90;;;;;;5046710;28;20252;-81
2023/08/28 03:36:35;;;;;;;0.00;0.00;;;12.70;99.90;;;;;;5046343;28;21231;-81
2023/08/28 03:39:01;;;;;;;0.00;0.00;;;12.90;99.90;;;;;;5046058;28;20180;-81
2023/08/28 03:41:26;;;;;;;0.10;0.10;;;13.10;99.90;;;;;;5045267;28;20190;-81
2023/08/28 03:43:52;;;;;;;0.10;0.10;;;13.10;99.90;;;;;;5045302;28;20260;-81
2023/08/28 03:46:17;;;;;;;0.10;0.10;;;13.00;99.90;;;;;;5037687;28;20178;-81
2023/08/28 03:48:43;;;;;;;0.10;0.10;;;13.00;99.90;;;;;;5044756;28;20184;-81
2023/08/28 03:51:09;;;;;;;0.10;0.10;;;13.00;99.90;;;;;;5057973;28;20741;-81
2023/08/28 03:53:34;;;;;;;0.10;0.10;;;12.90;99.90;;;;;;5044191;28;20197;-81
2023/08/28 03:56:00;;;;;;;0.10;0.10;;;12.90;99.90;;;;;;5043204;28;20262;-82
2023/08/28 03:58:26;;;;;;;0.10;0.10;;;12.90;99.90;;;;;;5059117;28;20242;-81
2023/08/28 04:00:53;;;;;;;0.10;0.10;;;12.80;99.90;;;;;;5043912;28;20207;-81
2023/08/28 04:03:20;;;;;;;0.10;0.10;;;12.80;99.90;;;;;;5043780;28;20583;-81
2023/08/28 04:05:45;;;;;;;0.10;0.10;;;12.90;99.90;;;;;;5042977;28;20547;-81
2023/08/28 04:08:11;;;;;;;0.10;0.10;;;12.80;99.90;;;;;;5045446;28;20214;-81
2023/08/28 04:10:37;;;;;;;0.10;0.10;;;12.80;99.90;;;;;;5043751;28;20244;-81
2023/08/28 04:13:02;;;;;;;0.10;0.10;;;12.60;99.90;;;;;;5045343;28;20216;-82
2023/08/28 04:15:28;;;;;;;0.10;0.10;;;12.50;99.90;;;;;;5043444;28;20581;-81
2023/08/28 04:17:53;;;;;;;0.10;0.10;;;12.40;99.90;;;;;;5043644;28;20194;-81
2023/08/28 04:20:19;;;;;;;0.10;0.10;;;12.40;99.90;;;;;;5044745;28;20571;-81
2023/08/28 04:22:45;;;;;;;0.10;0.10;;;12.60;99.90;;;;;;5044118;28;20546;-81
2023/08/28 04:25:12;;;;;;;0.10;0.10;;;12.70;99.90;;;;;;5042105;28;20201;-81
2023/08/28 04:27:39;;;;;;;0.10;0.10;;;12.80;99.90;;;;;;5045427;28;20197;-81
2023/08/28 04:30:06;;;;;;;0.10;0.10;;;13.00;99.90;;;;;;5042897;28;20679;-81
2023/08/28 04:32:31;;;;;;;0.10;0.10;;;13.10;99.90;;;;;;5043875;28;20201;-81
2023/08/28 04:34:57;;;;;;;0.10;0.10;;;13.30;99.90;;;;;;5044094;28;20222;-81
2023/08/28 04:37:24;;;;;;;0.10;0.10;;;13.40;99.90;;;;;;5041752;28;20197;-81
2023/08/28 04:39:50;;;;;;;0.10;0.10;;;13.40;99.90;;;;;;5040572;28;20193;-81
2023/08/28 04:42:16;;;;;;;0.07;0.07;;;13.50;99.90;;;;;;5043304;28;20280;-81
2023/08/28 04:44:41;;;;;;;0.10;0.10;;;13.50;99.90;;;;;;5043569;28;20629;-81
2023/08/28 04:47:07;;;;;;;0.10;0.10;;;13.50;99.90;;;;;;5045546;28;20259;-81
2023/08/28 04:49:32;;;;;;;0.10;0.10;;;13.60;99.90;;;;;;5044378;28;20197;-81
2023/08/28 04:51:58;;;;;;;0.10;0.10;;;13.70;99.90;;;;;;5042546;28;20732;-81
2023/08/28 04:54:23;;;;;;;0.10;0.10;;;13.60;99.90;;;;;;5043183;28;20208;-81
2023/08/28 04:56:49;;;;;;;0.10;0.10;;;13.60;99.90;;;;;;5042347;28;20501;-81
2023/08/28 04:59:15;;;;;;;0.03;0.03;;;13.70;99.90;;;;;;5042499;28;20216;-81
2023/08/28 05:01:40;;;;;;;0.10;0.10;;;13.70;99.90;;;;;;5042091;28;20239;-81
2023/08/28 05:04:06;;;;;;;0.10;0.10;;;13.70;99.90;;;;;;5042399;28;20263;-81
2023/08/28 05:06:32;;;;;;;0.10;0.10;;;13.80;99.90;;;;;;5044782;28;20236;-81
2023/08/28 05:08:57;;;;;;;0.10;0.10;;;13.80;99.90;;;;;;5040139;28;20221;-81
2023/08/28 05:11:23;;;;;;;0.10;0.10;;;14.00;99.90;;;;;;5043731;28;20224;-81
2023/08/28 05:13:49;;;;;;;0.10;0.10;;;13.80;99.90;;;;;;5042367;28;20210;-82
2023/08/28 05:16:14;;;;;;;0.10;0.10;;;13.90;99.90;;;;;;5043159;28;21120;-83
2023/08/28 05:18:39;;;;;;;0.10;0.10;;;14.00;99.90;;;;;;5042006;28;20272;-83
2023/08/28 05:21:05;;;;;;;0.10;0.10;;;14.00;99.90;;;;;;5041558;28;20281;-82
2023/08/28 05:23:31;;;;;;;0.10;0.10;;;13.90;99.90;;;;;;5040322;28;20814;-82
2023/08/28 05:25:57;;;;;;;0.10;0.10;;;14.00;99.90;;;;;;5042771;28;20194;-82
2023/08/28 05:28:22;;;;;;;0.10;0.10;;;14.00;99.90;;;;;;5040546;28;20197;-83
2023/08/28 05:30:48;;;;;;;0.10;0.10;;;14.00;99.90;;;;;;5040274;28;20731;-83
2023/08/28 05:33:13;;;;;;;0.10;0.10;;;13.80;99.90;;;;;;5042060;28;20604;-83
2023/08/28 05:35:39;;;;;;;0.10;0.10;;;13.80;99.90;;;;;;5042727;28;20209;-83
2023/08/28 05:38:06;;;;;;;0.10;0.10;;;14.00;99.90;;;;;;5043366;28;20189;-83
2023/08/28 05:40:31;;;;;;;0.10;0.10;;;14.30;99.90;;;;;;5043867;28;20185;-83
2023/08/28 05:42:57;;;;;;;0.00;0.00;;;14.10;99.90;;;;;;5058970;28;20626;-82
2023/08/28 05:45:22;;;;;;;0.00;0.00;;;14.40;99.90;;;;;;5057380;28;20187;-83
2023/08/28 05:47:48;;;;;;;0.10;0.10;;;14.50;99.90;;;;;;5041546;28;20188;-83
2023/08/28 05:50:13;;;;;;;0.10;0.10;;;14.40;99.90;;;;;;5041928;28;20190;-83
2023/08/28 05:52:39;;;;;;;0.10;0.10;;;14.60;99.90;;;;;;5059234;28;20727;-83
2023/08/28 05:55:06;;;;;;;0.07;0.07;;;14.70;99.90;;;;;;5043235;28;20206;-81
2023/08/28 05:57:31;;;;;;;0.10;0.10;;;14.50;99.90;;;;;;5042306;28;20185;-81
2023/08/28 05:59:57;;;;;;;0.10;0.10;;;14.70;99.90;;;;;;5058692;28;20719;-82
2023/08/28 06:02:22;;;;;;;0.10;0.10;;;14.90;99.90;;;;;;5044162;28;20189;-82
2023/08/28 06:04:48;;;;;;;0.10;0.10;;;15.10;99.90;;;;;;5041886;28;20720;-82
2023/08/28 06:07:14;;;;;;;0.00;0.00;;;15.00;99.90;;;;;;5042785;28;20896;-82
2023/08/28 06:09:42;;;;;;;0.10;0.10;;;15.10;99.90;;;;;;5043564;28;20272;-81
2023/08/28 06:12:08;;;;;;;0.10;0.10;;;15.30;99.90;;;;;;5052145;28;20224;-82
2023/08/28 06:14:33;;;;;;;0.10;0.10;;;15.50;99.90;;;;;;5042507;28;20690;-82
2023/08/28 06:16:59;;;;;;;0.10;0.10;;;15.40;99.90;;;;;;5044266;28;20202;-82
2023/08/28 06:19:25;;;;;;;0.10;0.10;;;15.70;99.90;;;;;;5041572;28;20655;-82
2023/08/28 06:21:50;;;;;;;0.07;0.07;;;15.80;99.90;;;;;;5048449;28;20264;-83
2023/08/28 06:24:16;;;;;;;0.10;0.10;;;16.00;99.90;;;;;;5047849;28;20205;-82
2023/08/28 06:26:42;;;;;;;0.10;0.10;;;16.20;99.90;;;;;;5042878;28;21159;-82
2023/08/28 06:29:08;;;;;;;0.10;0.10;;;16.40;99.90;;;;;;5043190;28;20739;-82
2023/08/28 06:31:34;;;;;;;0.10;0.10;;;16.50;99.90;;;;;;5045060;28;20711;-81
2023/08/28 06:33:59;;;;;;;0.10;0.10;;;16.70;99.90;;;;;;5045470;28;20216;-82
2023/08/28 06:36:25;;;;;;;0.10;0.10;;;16.80;99.90;;;;;;5045732;28;20235;-82
2023/08/28 06:38:52;;;;;;;0.10;0.10;;;16.80;99.90;;;;;;5047120;28;20225;-81
2023/08/28 06:41:18;;;;;;;0.10;0.10;;;16.90;99.90;;;;;;5047755;28;20725;-83
2023/08/28 06:43:44;;;;;;;0.10;0.10;;;16.90;99.90;;;;;;5047713;28;20225;-83
2023/08/28 06:46:09;;;;;;;0.10;0.10;;;16.90;99.90;;;;;;5048335;28;20220;-83
2023/08/28 06:48:35;;;;;;;0.10;0.10;;;16.90;99.90;;;;;;5050602;28;20196;-83
2023/08/28 06:51:00;;;;;;;0.10;0.10;;;16.90;99.90;;;;;;5047732;28;21069;-82
2023/08/28 06:53:26;;;;;;;0.10;0.10;;;16.90;99.90;;;;;;5046737;28;20209;-83
2023/08/28 06:55:52;;;;;;;0.10;0.10;;;17.00;99.90;;;;;;5044184;28;20735;-83
2023/08/28 06:58:17;;;;;;;0.10;0.10;;;17.00;99.90;;;;;;5047642;28;20185;-84
2023/08/28 07:00:43;;;;;;;0.10;0.10;;;17.00;99.90;;;;;;5045250;28;20208;-83
2023/08/28 07:03:09;;;;;;;0.10;0.10;;;17.00;99.90;;;;;;5048233;28;20209;-83
2023/08/28 07:05:34;;;;;;;0.10;0.10;;;17.00;99.90;;;;;;5062789;28;20185;-82
2023/08/28 07:08:00;;;;;;;0.10;0.10;;;17.00;99.90;;;;;;5043529;28;21069;-81
2023/08/28 07:10:26;;;;;;;0.10;0.10;;;17.00;99.90;;;;;;5042964;28;20193;-81
2023/08/28 07:12:51;;;;;;;0.10;0.10;;;17.10;99.90;;;;;;5060217;28;20185;-82
2023/08/28 07:15:20;;;;;;;0.10;0.10;;;17.10;99.90;;;;;;5043037;28;20201;-83
2023/08/28 07:17:46;;;;;;;0.10;0.10;;;17.20;99.90;;;;;;5045230;28;20235;-83
2023/08/28 07:20:11;;;;;;;0.10;0.10;;;17.20;99.90;;;;;;5043749;28;20719;-83
2023/08/28 07:22:37;;;;;;;0.00;0.00;;;17.20;99.90;;;;;;5045516;28;20289;-83
2023/08/28 07:25:03;;;;;;;0.10;0.10;;;17.10;99.90;;;;;;5045498;28;20423;-83
2023/08/28 07:27:28;;;;;;;0.10;0.10;;;17.10;99.90;;;;;;5055206;28;20193;-83
2023/08/28 07:29:53;;;;;;;0.10;0.10;;;17.00;99.90;;;;;;5041666;28;20262;-83
2023/08/28 07:32:19;;;;;;;0.10;0.10;;;17.10;99.90;;;;;;5045222;28;20242;-83
2023/08/28 07:34:45;;;;;;;0.10;0.10;;;17.00;99.90;;;;;;5045742;28;20213;-83
2023/08/28 07:37:10;;;;;;;0.10;0.10;;;17.10;99.90;;;;;;5047036;28;20189;-83
2023/08/28 07:39:36;;;;;;;0.07;0.07;;;16.70;99.90;;;;;;5044878;28;20576;-83
2023/08/28 07:42:02;;;;;;;0.10;0.10;;;16.60;99.90;;;;;;5046615;28;20212;-83
2023/08/28 07:44:28;;;;;;;0.10;0.10;;;16.40;99.90;;;;;;5044645;28;20249;-84
2023/08/28 07:46:53;;;;;;;0.10;0.10;;;16.20;99.90;;;;;;5044619;28;20220;-83
2023/08/28 07:49:19;;;;;;;0.10;0.10;;;16.10;99.90;;;;;;5061094;28;20655;-83
2023/08/28 07:51:44;;;;;;;0.10;0.10;;;16.00;99.90;;;;;;5044532;28;20202;-83
2023/08/28 07:54:11;;;;;;;0.10;0.10;;;16.20;99.90;;;;;;5054206;28;20301;-83
2023/08/28 07:56:37;;;;;;;0.10;0.10;;;16.30;99.90;;;;;;5044615;28;20182;-83
2023/08/28 07:59:04;;;;;;;0.10;0.10;;;16.30;99.90;;;;;;5046612;28;20201;-83
2023/08/28 08:01:30;;;;;;;0.10;0.10;;;16.50;99.90;;;;;;5045212;28;20277;-83
2023/08/28 08:03:56;;;;;;;0.10;0.10;;;16.60;99.90;;;;;;5053512;28;20251;-83
2023/08/28 08:06:22;;;;;;;0.10;0.10;;;16.50;99.90;;;;;;5044950;28;20300;-83
2023/08/28 08:08:48;;;;;;;0.10;0.10;;;16.60;99.90;;;;;;5043398;28;20201;-83
2023/08/28 08:11:14;;;;;;;0.10;0.10;;;17.00;99.90;;;;;;5045221;28;20243;-83
2023/08/28 08:13:40;;;;;;;0.10;0.10;;;16.80;99.90;;;;;;5044904;28;20255;-83
2023/08/28 08:16:05;;;;;;;0.10;0.10;;;16.80;99.90;;;;;;5044065;28;20202;-83
2023/08/28 08:18:31;;;;;;;0.10;0.10;;;16.80;99.90;;;;;;5046185;28;20272;-83
2023/08/28 08:20:57;;;;;;;0.10;0.10;;;17.10;99.90;;;;;;5045435;28;21267;-83
2023/08/28 08:23:23;;;;;;;0.10;0.10;;;17.20;99.90;;;;;;5043079;28;20198;-82
2023/08/28 08:25:49;;;;;;;0.10;0.10;;;17.60;99.90;;;;;;5040618;28;20198;-81
2023/08/28 08:28:17;;;;;;;0.10;0.10;;;17.90;99.90;;;;;;5044221;28;20197;-82
2023/08/28 08:30:43;;;;;;;0.10;0.10;;;18.20;99.90;;;;;;5042573;28;20273;-82
2023/08/28 08:33:09;;;;;;;0.10;0.10;;;18.50;99.90;;;;;;5044997;28;20312;-82
2023/08/28 08:35:35;;;;;;;0.10;0.10;;;18.20;99.90;;;;;;5042370;28;20215;-81
2023/08/28 08:38:01;;;;;;;0.10;0.10;;;18.20;99.90;;;;;;5045153;28;20190;-81
2023/08/28 08:40:26;;;;;;;0.10;0.10;;;18.30;99.90;;;;;;5045303;28;20706;-82
2023/08/28 08:42:55;;;;;;;0.10;0.10;;;18.90;99.90;;;;;;5041494;28;20178;-81
2023/08/28 08:45:26;;;;;;;0.10;0.10;;;18.80;99.90;;;;;;5045002;28;20230;-81
2023/08/28 08:47:54;;;;;;;0.10;0.10;;;18.70;99.90;;;;;;5045031;28;20185;-81
2023/08/28 08:50:22;;;;;;;0.10;0.10;;;18.90;99.90;;;;;;5043174;28;20185;-81
2023/08/28 08:52:49;;;;;;;0.10;0.10;;;19.20;99.90;;;;;;5043241;28;20201;-82
2023/08/28 08:55:29;;;;;;;0.10;0.10;;;19.00;99.90;;;;;;5045229;28;20219;-82
2023/08/28 08:57:59;;;;;;;0.10;0.10;;;19.30;99.90;;;;;;5060421;28;20188;-83
2023/08/28 09:00:25;;;;;;;0.10;0.10;;;19.40;99.90;;;;;;5043633;28;21023;-84
2023/08/28 09:02:52;;;;;;;0.10;0.10;;;19.20;99.90;;;;;;5048656;28;20240;-84
2023/08/28 09:05:19;;;;;;;0.10;0.10;;;19.80;99.90;;;;;;5046971;28;20273;-82
2023/08/28 09:07:46;;;;;;;0.10;0.10;;;19.70;99.90;;;;;;5046840;28;20197;-85
2023/08/28 09:10:14;;;;;;;0.10;0.10;;;19.50;99.90;;;;;;5047992;28;20268;-81
2023/08/28 09:12:43;;;;;;;0.10;0.10;;;19.80;99.90;;;;;;5047863;28;20659;-82
2023/08/28 09:15:11;;;;;;;0.10;0.10;;;20.10;99.90;;;;;;5048714;28;20224;-81
2023/08/28 09:17:43;;;;;;;0.10;0.10;;;19.80;99.90;;;;;;5052741;28;20231;-82
2023/08/28 09:20:16;;;;;;;0.10;0.10;;;20.20;99.90;;;;;;5046355;28;20277;-82
2023/08/28 09:22:53;;;;;;;0.10;0.10;;;20.40;99.90;;;;;;5055194;28;20245;-82
2023/08/28 09:25:21;;;;;;;0.10;0.10;;;20.60;99.90;;;;;;5068562;28;20207;-82
2023/08/28 09:27:48;;;;;;;0.10;0.10;;;20.70;99.90;;;;;;5048721;28;20701;-82
2023/08/28 09:30:32;;;;;;;0.10;0.10;;;20.80;99.90;;;;;;5048573;28;20186;-82
2023/08/28 09:32:59;;;;;;;0.10;0.10;;;20.80;99.90;;;;;;5052724;28;20186;-82
2023/08/28 09:35:28;;;;;;;0.10;0.10;;;20.80;99.90;;;;;;5059866;28;20213;-81
2023/08/28 09:37:58;;;;;;;0.10;0.10;;;20.80;99.90;;;;;;5051299;28;20201;-82
2023/08/28 09:40:29;;;;;;;0.10;0.10;;;20.40;99.90;;;;;;5063671;28;20170;-83
2023/08/28 09:42:55;;;;;;;0.10;0.10;;;20.70;99.90;;;;;;5055859;28;20181;-82
2023/08/28 09:45:20;;;;;;;0.10;0.10;;;21.00;99.90;;;;;;5067213;28;20253;-82
2023/08/28 09:47:53;;;;;;;0.10;0.10;;;21.30;99.90;;;;;;5069747;28;20173;-82
2023/08/28 09:50:29;;;;;;;0.10;0.10;;;21.80;99.90;;;;;;5064807;28;20166;-82
2023/08/28 09:52:54;;;;;;;0.10;0.10;;;21.80;99.90;;;;;;5072363;28;20192;-82
2023/08/28 09:55:20;;;;;;;0.10;0.10;;;21.80;99.90;;;;;;5072825;28;20220;-82
2023/08/28 09:57:46;;;;;;;0.10;0.10;;;21.30;99.90;;;;;;5066132;28;20223;-83
2023/08/28 10:00:13;;;;;;;0.10;0.10;;;21.70;99.90;;;;;;5073251;28;20204;-82
2023/08/28 10:02:39;;;;;;;0.10;0.10;;;22.10;99.90;;;;;;5068521;28;20181;-82
2023/08/28 10:05:08;;;;;;;0.10;0.10;;;22.10;99.90;;;;;;5065750;28;20207;-82
2023/08/28 10:07:37;;;;;;;0.10;0.10;;;22.60;99.90;;;;;;5065413;28;20190;-82
2023/08/28 10:10:05;;;;;;;0.10;0.10;;;22.20;99.90;;;;;;5070965;28;20173;-82
2023/08/28 10:12:31;;;;;;;0.10;0.10;;;21.90;99.90;;;;;;5074967;28;20186;-82
2023/08/28 10:14:59;;;;;;;0.10;0.10;;;21.80;99.90;;;;;;5065756;28;20210;-82
2023/08/28 10:17:27;;;;;;;0.10;0.10;;;21.10;99.90;;;;;;5061467;28;20197;-82
2023/08/28 10:20:01;;;;;;;0.10;0.10;;;21.10;99.90;;;;;;5061451;28;20178;-85
2023/08/28 10:22:28;;;;;;;0.10;0.10;;;20.70;99.90;;;;;;5059303;28;20185;-85
2023/08/28 10:24:56;;;;;;;0.10;0.10;;;21.10;99.90;;;;;;5063031;28;20210;-86
2023/08/28 10:27:22;;;;;;;0.10;0.10;;;21.30;99.90;;;;;;5063083;28;20209;-85
2023/08/28 10:29:48;;;;;;;0.10;0.10;;;21.10;99.90;;;;;;5064386;28;20193;-82
2023/08/28 10:32:14;;;;;;;0.10;0.10;;;21.40;99.90;;;;;;5063033;28;20197;-82
2023/08/28 10:34:40;;;;;;;0.10;0.10;;;21.30;99.90;;;;;;5060130;28;20225;-82
2023/08/28 10:37:10;;;;;;;0.10;0.10;;;20.70;99.90;;;;;;5078365;28;20200;-82
2023/08/28 10:39:43;;;;;;;0.10;0.10;;;20.70;99.90;;;;;;5061132;28;20170;-82
2023/08/28 10:42:10;;;;;;;0.10;0.10;;;21.30;99.90;;;;;;5065312;28;20174;-82
2023/08/28 10:44:37;;;;;;;0.10;0.10;;;21.70;99.90;;;;;;5060739;28;20209;-82
2023/08/28 10:47:03;;;;;;;0.10;0.10;;;21.20;99.90;;;;;;5062278;28;20189;-82
2023/08/28 10:49:29;;;;;;;0.10;0.10;;;21.30;99.90;;;;;;5066838;28;20269;-83
2023/08/28 10:52:04;;;;;;;0.10;0.10;;;21.00;99.90;;;;;;5063847;28;20267;-82
2023/08/28 10:55:03;;;;;;;0.10;0.10;;;21.20;99.90;;;;;;5067417;28;20484;-83
2023/08/28 10:57:29;;;;;;;0.10;0.10;;;21.00;99.90;;;;;;5060341;28;20186;-83
2023/08/28 10:59:59;;;;;;;0.10;0.10;;;21.10;99.90;;;;;;5063920;28;20185;-82
2023/08/28 11:02:25;;;;;;;0.10;0.10;;;19.80;99.90;;;;;;5066057;28;20201;-83
2023/08/28 11:04:50;;;;;;;0.10;0.10;;;20.40;99.90;;;;;;5063942;28;20213;-84
2023/08/28 11:07:43;;;;;;;0.10;0.10;;;20.10;99.90;;;;;;5060689;28;20693;-83
2023/08/28 11:10:20;;;;;;;0.10;0.10;;;20.80;99.90;;;;;;5057450;28;20194;-84
2023/08/28 11:13:02;;;;;;;0.10;0.10;;;21.30;99.90;;;;;;5062779;28;20185;-85
2023/08/28 11:15:39;;;;;;;0.10;0.10;;;21.90;99.90;;;;;;5077049;28;20204;-84
2023/08/28 11:18:28;;;;;;;0.10;0.10;;;21.40;99.90;;;;;;5062466;28;20551;-84
2023/08/28 11:21:00;;;;;;;0.10;0.10;;;21.50;99.90;;;;;;5076915;28;20192;-84
2023/08/28 11:23:34;;;;;;;0.10;0.10;;;21.90;99.90;;;;;;5057272;28;20198;-84
2023/08/28 11:26:07;;;;;;;0.10;0.10;;;21.20;99.90;;;;;;5055751;28;20188;-85
2023/08/28 11:28:47;;;;;;;0.10;0.10;;;21.20;99.90;;;;;;5059143;28;20253;-83
2023/08/28 11:31:13;;;;;;;0.10;0.10;;;21.00;99.90;;;;;;5058836;28;20196;-84
2023/08/28 11:33:45;;;;;;;0.10;0.10;;;21.10;99.90;;;;;;5072400;28;20213;-83
2023/08/28 11:36:16;;;;;;;0.10;0.10;;;20.30;99.90;;;;;;5064210;28;20284;-84
2023/08/28 11:38:42;;;;;;;0.10;0.10;;;20.20;99.90;;;;;;5065976;28;20193;-84
2023/08/28 11:41:10;;;;;;;0.10;0.10;;;20.70;99.90;;;;;;5061877;28;20178;-84
2023/08/28 11:43:37;;;;;;;0.10;0.10;;;21.20;99.90;;;;;;5062833;28;20197;-84
2023/08/28 11:46:03;;;;;;;0.10;0.10;;;21.60;99.90;;;;;;5061440;28;20190;-85
2023/08/28 11:48:48;;;;;;;0.10;0.10;;;20.90;99.90;;;;;;5060783;28;20272;-84
2023/08/28 11:51:13;;;;;;;0.10;0.10;;;20.50;99.90;;;;;;5053557;28;20193;-84
2023/08/28 11:53:42;;;;;;;0.10;0.10;;;21.20;99.90;;;;;;5054832;28;20205;-84
2023/08/28 11:56:12;;;;;;;0.10;0.10;;;21.50;99.90;;;;;;5048253;28;20213;-84
2023/08/28 11:58:39;;;;;;;0.10;0.10;;;21.10;99.90;;;;;;5048379;28;20202;-83
2023/08/28 12:01:12;;;;;;;0.10;0.10;;;21.30;99.90;;;;;;5065379;28;20224;-84
2023/08/28 12:03:38;;;;;;;0.10;0.10;;;21.00;99.90;;;;;;5067204;28;20740;-83
2023/08/28 12:06:07;;;;;;;0.10;0.10;;;20.90;99.90;;;;;;5052287;28;20181;-84
2023/08/28 12:08:38;;;;;;;0.10;0.10;;;20.70;99.90;;;;;;5072067;28;20576;-83
2023/08/28 12:11:07;;;;;;;0.10;0.10;;;21.10;99.90;;;;;;5054536;28;20225;-83
2023/08/28 12:13:33;;;;;;;0.10;0.10;;;21.10;99.90;;;;;;5055314;28;20213;-83
2023/08/28 12:16:17;;;;;;;0.10;0.10;;;21.60;99.90;;;;;;5054587;28;20339;-83
2023/08/28 12:18:50;;;;;;;0.10;0.10;;;21.00;99.90;;;;;;5054451;28;20197;-83
2023/08/28 12:21:17;;;;;;;0.10;0.10;;;21.10;99.90;;;;;;5052822;28;20185;-83
2023/08/28 12:23:51;;;;;;;0.10;0.10;;;21.10;99.90;;;;;;5053849;28;20198;-83
2023/08/28 12:26:18;;;;;;;0.10;0.10;;;21.50;99.90;;;;;;5052384;28;20182;-84
2023/08/28 12:28:44;;;;;;;0.10;0.10;;;21.90;99.90;;;;;;5053297;28;20181;-83
2023/08/28 12:31:10;;;;;;;0.10;0.10;;;22.20;99.90;;;;;;5050178;28;20182;-83
2023/08/28 12:33:40;;;;;;;0.10;0.10;;;22.30;99.90;;;;;;5051658;28;20330;-82
2023/08/28 12:36:06;;;;;;;0.10;0.10;;;21.50;99.90;;;;;;5067759;28;20292;-83
2023/08/28 12:38:50;;;;;;;0.10;0.10;;;21.50;99.90;;;;;;5052110;28;20205;-84
2023/08/28 12:41:16;;;;;;;0.10;0.10;;;21.70;99.90;;;;;;5048408;28;20188;-83
2023/08/28 12:43:43;;;;;;;0.10;0.10;;;22.10;99.90;;;;;;5050426;28;20193;-83
2023/08/28 12:46:09;;;;;;;0.10;0.10;;;22.30;99.90;;;;;;5057848;28;20224;-84
2023/08/28 12:48:34;;;;;;;0.10;0.10;;;22.20;99.90;;;;;;5063904;28;20193;-83